Athens, Vermont
Current Conditions -  °F | °C
As of 7:45 AM on Monday 24 Nov 2014 (Local Time) from KVSF Reporting Station
Light Rain Light Rain  
Wind Chill: 37°   Ceiling: 700
Heat Index: 37°   Visibility: 0.5mi
Dew Point: 37°   Wind: 0mph
Humidity: 100%   Direction: NA
Pressure: 29.72"   Gusts: NA
Location:  43.2811°N, 72.6352°W
Report Text: KVSF 241245Z AUTO 00000KT 1/2SM -RA FG BKN007 OVC012 03/03 A2972 RMK AO2 P0014 T00280028
Loading
Personal Weather Stations






























Interactive Weather Map New forecast layout! Learn more

10-Day Weather Forecast

Advertisements
Track Severe Weather on mobile